Terminal Aerodrome Forecast
Issued by NWS Rapid City, SD

Home | Current Version | Previous Version | Graphics & Text | Print | Product List | Glossary On
Versions: 1 2 3 4 5 6 7 8 9 10 11 12 13 14 15 16
000
FTUS43 KUNR 011700
TAFRAP
TAF
KRAP 011720Z 0118/0218 34011KT P6SM SCT050 SCT100
     FM011900 34014KT P6SM -SHRA BKN040
     FM020000 35009KT P6SM SCT050 SCT080
     FM020300 VRB04KT P6SM SKC=

USA.gov is the U.S. government's official web portal to all federal, state and local government web resources and services.